Flight Track Log - Related Links

Times and Time Zones

All times are in EDT time to prevent confusion due to time zone crossing. See the SKW6492 flight status page for this flight to view local times or setup timezone preferences in your user account.

Time Position Orientation Groundspeed Altitude Reporting Facility
EDT Latitude Longitude Course Direction KTS MPH feet Rate Location/Type
Fri 09:42:51 PM 39.9500 -104.6833 346° North 209 241 8,400  Level Denver TRACON
Fri 09:43:51 PM 40.0167 -104.6667 11° North 259 298 10,000 1,215 Climbing Denver TRACON
Fri 09:44:10 PM 40.0319 -104.6639 North 253 291 10,000 74 Level Denver Center
Fri 09:45:12 PM 40.1000 -104.6753 353° North 249 287 10,100 1,016 Climbing Denver Center
Fri 09:46:14 PM 40.1800 -104.6950 349° North 270 311 12,100 2,274 Climbing Denver Center
Fri 09:47:16 PM 40.2556 -104.7150 349° North 274 315 14,800 2,516 Climbing Denver Center
Fri 09:48:00 PM 40.3259 -104.8197 346° North  Level FlightAware Approximate
Fri 09:48:18 PM 40.3411 -104.7364 349° North 288 331 17,300  Level Denver Center
Fri 09:49:19 PM 40.4256 -104.7589 349° North 313 360 18,200 1,317 Climbing Denver Center
Fri 09:50:21 PM 40.5269 -104.7861 348° North 341 392 20,000 1,597 Climbing Denver Center
Fri 09:51:23 PM 40.6236 -104.8097 349° North 353 406 21,500 1,452 Climbing Denver Center
Fri 09:52:25 PM 40.7219 -104.8339 349° North 358 412 23,000 1,645 Climbing Denver Center
Fri 09:53:27 PM 40.8136 -104.8619 347° North 343 395 24,900 1,790 Climbing Denver Center
Fri 09:54:29 PM 40.9158 -104.9131 339° North 348 400 26,700 1,306 Climbing Denver Center
Fri 09:55:31 PM 40.9964 -104.9839 326° Northwest 367 422 27,600 976 Climbing Denver Center
Fri 09:56:32 PM 41.0864 -105.0769 322° Northwest 369 425 28,700 1,073 Climbing Denver Center
Fri 09:57:34 PM 41.1658 -105.1606 322° Northwest 377 434 29,800 1,161 Climbing Denver Center
Fri 09:58:36 PM 41.2556 -105.2592 320° Northwest 375 432 31,100 1,016 Climbing Denver Center
Fri 09:59:38 PM 41.3331 -105.3408 322° Northwest 372 428 31,900 435 Climbing Denver Center
Fri 10:00:40 PM 41.4128 -105.4267 321° Northwest 377 434 32,000 48 Climbing Denver Center
Fri 10:01:42 PM 41.5075 -105.5311 320° Northwest 388 447 32,000  Level Denver Center
Fri 10:02:44 PM 41.5906 -105.6219 321° Northwest 397 457 32,000  Level Denver Center
Fri 10:03:45 PM 41.6825 -105.7200 321° Northwest 384 442 32,000  Level Denver Center
Fri 10:04:47 PM 41.7611 -105.8064 321° Northwest 383 441 32,000  Level Denver Center
Fri 10:05:49 PM 41.8519 -105.9069 321° Northwest 377 434 32,000  Level Denver Center
Fri 10:06:51 PM 41.9189 -105.9808 321° Northwest 383 441 32,000  Level Denver Center
Fri 10:07:53 PM 42.0103 -106.0806 321° Northwest 381 438 32,000  Level Denver Center
Fri 10:08:55 PM 42.0989 -106.1786 321° Northwest 371 427 32,000  Level Denver Center
Fri 10:09:57 PM 42.1742 -106.2653 320° Northwest 372 428 32,000  Level Denver Center
Fri 10:10:59 PM 42.2653 -106.3656 321° Northwest 378 435 32,000  Level Denver Center
Fri 10:12:00 PM 42.3408 -106.4514 320° Northwest 372 428 32,000  Level Denver Center
Fri 10:13:02 PM 42.4300 -106.5508 321° Northwest 372 428 32,000  Level Denver Center
Fri 10:14:04 PM 42.5072 -106.6375 320° Northwest 375 432 32,000  Level Denver Center
Fri 10:15:06 PM 42.5967 -106.7403 320° Northwest 377 434 32,000  Level Denver Center
Fri 10:16:08 PM 42.6736 -106.8272 320° Northwest 377 434 32,000  Level Denver Center
Fri 10:17:09 PM 42.7506 -106.9158 320° Northwest 377 434 32,000  Level Denver Center
Fri 10:18:23 PM 42.8408 -107.0183 320° Northwest 378 435 32,000  Level Denver Center
Fri 10:19:25 PM 42.9431 -107.1372 320° Northwest 378 435 32,000  Level Denver Center
Fri 10:20:27 PM 43.0069 -107.2114 320° Northwest 378 435 32,000  Level Denver Center
Fri 10:21:29 PM 43.1039 -107.3242 320° Northwest 380 437 32,000  Level Denver Center
Fri 10:22:31 PM 43.1811 -107.4125 320° Northwest 379 436 32,000  Level Denver Center
Fri 10:22:54 PM 43.2181 -107.4597 317° Northwest 379 436 32,000  Level Salt Lake Center
Fri 10:23:55 PM 43.2947 -107.5492 320° Northwest 378 435 32,000  Level Salt Lake Center
Fri 10:24:57 PM 43.3825 -107.6522 320° Northwest 372 428 32,000  Level Salt Lake Center
Fri 10:25:59 PM 43.4572 -107.7383 320° Northwest 368 423 32,000  Level Salt Lake Center
Fri 10:27:00 PM 43.5303 -107.8244 319° Northwest 363 418 32,000  Level Salt Lake Center
Fri 10:28:02 PM 43.6150 -107.9247 319° Northwest 360 414 32,000 -585 Level Salt Lake Center
Fri 10:29:03 PM 43.6894 -108.0139 319° Northwest 367 422 30,800 -2,244 Descending Salt Lake Center
Fri 10:30:05 PM 43.7794 -108.1222 319° Northwest 382 440 27,400 -3,073 Descending Salt Lake Center
Fri 10:31:06 PM 43.8558 -108.2142 319° Northwest 379 436 24,500 -2,829 Descending Salt Lake Center
Fri 10:32:08 PM 43.9294 -108.3028 319° Northwest 368 423 21,600 -3,073 Descending Salt Lake Center
Fri 10:33:09 PM 44.0125 -108.4039 319° Northwest 358 412 18,200 -2,878 Descending Salt Lake Center
Fri 10:34:11 PM 44.0833 -108.4883 319° Northwest 354 407 15,700 -2,855 Descending Salt Lake Center
Fri 10:35:13 PM 44.1619 -108.5847 319° Northwest 346 398 12,300 -2,732 Descending Salt Lake Center
Fri 10:36:14 PM 44.2281 -108.6650 319° Northwest 338 389 10,100 -1,122 Descending Salt Lake Center
Fri 10:37:16 PM 44.2919 -108.7450 318° Northwest 306 352 10,000 -49 Descending Salt Lake Center
Fri 10:38:17 PM 44.3356 -108.7983 319° Northwest 250 288 10,000 -390 Level Salt Lake Center
Fri 10:39:19 PM 44.3678 -108.8697 302° West 233 268 9,200 -878 Descending Salt Lake Center
Fri 10:40:20 PM 44.4000 -108.9564 298° West 227 261 8,200 -984 Descending Salt Lake Center

Login

Don't have an account? Register now (free) for customized features, flight alerts, and more!